Nyala, Nevada Weather observations

Data are for observation ending at time listed.
 Day   Time    Ave.   Ave.  Ave.  Vector   Max.   Stn.    Total    Solar   Ave.  
  of    of     Air    Rel.  Wind   Wind    Wind   Baro.  Precip.   Rad.    Soil  
Year   Day     Temp.  Hum.  Speed  Dir.    Gust   Pres.                    Temp. 
2014   (PST)    F      %     mph   deg.    mph     mb.     in.     W/m2     F   
------------------------------------------------------------------------------
 259   14:00   91.0    17    5.5   149     15.6    851     0.00     196    81.6
 259   15:00   90.6    20    7.7   201     18.4    851     0.00     222    82.8
 259   16:00   90.4    20    7.6   200     16.4    850     0.00     175    82.7
 259   17:00   89.2    20    6.5   183     12.2    850     0.00      90    82.7
 259   18:00   87.0    20    5.5   156      9.5    850     0.00      17    83.0
 259   19:00   82.3    23    5.6   140      9.1    850     0.00       0    82.5
 259   20:00   80.1    25    5.1   142      8.3    850     0.00       0    81.6
 259   21:00   80.7    25    6.6   143     12.4    851     0.00       0    80.7
 259   22:00   81.7    24    8.9   140     15.6    851     0.00       0    80.1
 259   23:00   81.1    26    8.8   141     15.6    851     0.00       0    79.5
 260    0:00  999.0   999  999.0   999    999.0    999    999.00     999    999.0
 260    1:00  999.0   999  999.0   999    999.0    999    999.00     999    999.0
 260    2:00  999.0   999  999.0   999    999.0    999    999.00     999    999.0
 260    3:00  999.0   999  999.0   999    999.0    999    999.00     999    999.0
 260    4:00   61.3    62    2.1   195      6.6    851     0.00       0    76.0
 260    5:00   63.5    58    1.4    90      4.6    851     0.00       0    75.1
 260    6:00   60.1    67    2.4   218      7.2    851     0.00       2    74.4
 260    7:00   67.2    56    2.4   164      5.6    852     0.00      68    73.7
 260    8:00   74.3    46    0.7   255      3.1    852     0.00     154    73.5
 260    9:00   78.4    40    1.2    12      5.1    852     0.00     235    73.9
 260   10:00   82.1    35    2.0   344      5.9    852     0.00     299    74.5
 260   11:00   86.3    30    1.4    42      7.2    851     0.00     327    75.5
 260   12:00   85.8    31    2.9    57      6.6    850     0.00     277    77.0
 260   13:00   87.2    29    2.2    57      6.8    850     0.00     155    79.4

Return to Nyala, Nevada graphs page.


Western Regional Climate Center,wrcc@dri.edu